Time;durP1;ratioP1;P1;durP2;ratioP2;P2;SDS_P1;SDS_P2;PMS_P1;PMS_P2;Temp;Humidity;BMP_temperature;BMP_pressure;BME280_temperature;BME280_humidity;BME280_pressure;Samples;Min_cycle;Max_cycle;Signal;HPM_P1;HPM_P2
2021/08/22 00:01:18;;;;;;;17.15;10.48;;;19.00;99.90;;;;;;5072191;28;20947;-72
2021/08/22 00:03:47;;;;;;;17.65;11.65;;;19.20;99.90;;;;;;5073314;28;20102;-72
2021/08/22 00:06:14;;;;;;;19.13;11.57;;;19.00;99.90;;;;;;5072935;28;20047;-72
2021/08/22 00:08:41;;;;;;;14.18;9.55;;;19.00;99.90;;;;;;5063472;28;20074;-72
2021/08/22 00:11:08;;;;;;;13.95;9.15;;;19.10;99.90;;;;;;5065394;28;21513;-72
2021/08/22 00:13:35;;;;;;;12.75;8.75;;;19.10;99.90;;;;;;5075813;28;20573;-72
2021/08/22 00:16:03;;;;;;;12.85;9.52;;;19.10;99.90;;;;;;5075434;28;20052;-71
2021/08/22 00:18:30;;;;;;;13.88;9.95;;;19.10;99.90;;;;;;5073133;28;20117;-71
2021/08/22 00:20:59;;;;;;;16.17;9.50;;;19.10;99.90;;;;;;5075733;28;20055;-71
2021/08/22 00:23:28;;;;;;;13.93;9.50;;;19.00;99.90;;;;;;5073246;28;20073;-71
2021/08/22 00:25:55;;;;;;;12.63;8.93;;;19.00;99.90;;;;;;5077258;28;20060;-71
2021/08/22 00:28:22;;;;;;;14.15;9.45;;;19.00;99.90;;;;;;5072617;28;20160;-71
2021/08/22 00:30:49;;;;;;;12.15;8.13;;;19.00;99.90;;;;;;5075013;28;20043;-71
2021/08/22 00:33:16;;;;;;;12.55;8.50;;;19.00;99.90;;;;;;5077014;28;20048;-71
2021/08/22 00:35:42;;;;;;;12.82;8.77;;;19.00;99.90;;;;;;5075045;28;20134;-71
2021/08/22 00:38:11;;;;;;;12.13;9.20;;;19.00;99.90;;;;;;5074255;28;20080;-72
2021/08/22 00:40:38;;;;;;;17.15;11.52;;;19.10;99.90;;;;;;5076020;28;20058;-72
2021/08/22 00:43:07;;;;;;;15.70;9.88;;;19.10;99.90;;;;;;5075815;28;21065;-72
2021/08/22 00:45:34;;;;;;;16.63;11.00;;;19.10;99.90;;;;;;5074649;28;20059;-71
2021/08/22 00:48:01;;;;;;;17.88;10.30;;;19.10;99.90;;;;;;5074340;28;20051;-71
2021/08/22 00:50:28;;;;;;;15.93;9.00;;;19.10;99.90;;;;;;5077185;28;20765;-71
2021/08/22 00:52:55;;;;;;;13.30;8.70;;;19.20;99.90;;;;;;5079535;28;20135;-72
2021/08/22 00:55:24;;;;;;;13.43;7.90;;;19.30;99.90;;;;;;5078754;28;20050;-71
2021/08/22 00:57:52;;;;;;;12.23;7.85;;;19.30;99.90;;;;;;5079952;28;20135;-70
2021/08/22 01:00:19;;;;;;;15.98;8.93;;;19.40;99.90;;;;;;5070957;28;20062;-72
2021/08/22 01:02:56;;;;;;;13.15;9.75;;;19.30;99.90;;;;;;5071055;28;20040;-72
2021/08/22 01:05:33;;;;;;;19.42;11.57;;;19.20;99.90;;;;;;5071768;28;20148;-72
2021/08/22 01:08:06;;;;;;;16.88;11.80;;;19.20;99.90;;;;;;5074290;28;20047;-72
2021/08/22 01:10:35;;;;;;;13.77;10.10;;;19.10;99.90;;;;;;5075594;28;20056;-72
2021/08/22 01:13:05;;;;;;;14.05;9.57;;;19.10;99.90;;;;;;5077145;28;20048;-72
2021/08/22 01:15:35;;;;;;;14.68;9.60;;;19.20;99.90;;;;;;5077003;28;20052;-72
2021/08/22 01:18:05;;;;;;;14.68;9.90;;;19.00;99.90;;;;;;5075384;28;20472;-71
2021/08/22 01:20:37;;;;;;;15.80;10.70;;;18.90;99.90;;;;;;5072877;28;20384;-71
2021/08/22 01:23:06;;;;;;;14.40;10.15;;;18.80;99.90;;;;;;5075654;28;20500;-70
2021/08/22 01:25:37;;;;;;;19.05;11.05;;;18.90;99.90;;;;;;5076295;28;20048;-71
2021/08/22 01:28:06;;;;;;;13.35;9.50;;;18.80;99.90;;;;;;5073961;28;20047;-71
2021/08/22 01:30:40;;;;;;;14.80;9.85;;;18.80;99.90;;;;;;5075364;28;20051;-71
2021/08/22 01:33:12;;;;;;;18.25;12.10;;;18.80;99.90;;;;;;5076950;28;20063;-71
2021/08/22 01:35:40;;;;;;;16.50;10.55;;;18.70;99.90;;;;;;5076522;28;20039;-71
2021/08/22 01:38:08;;;;;;;16.52;10.35;;;18.80;99.90;;;;;;5076594;28;21367;-71
2021/08/22 01:40:36;;;;;;;15.18;10.10;;;18.80;99.90;;;;;;5076580;28;20075;-71
2021/08/22 01:43:05;;;;;;;13.65;9.55;;;18.80;99.90;;;;;;5076537;28;20048;-72
2021/08/22 01:45:33;;;;;;;16.35;9.75;;;18.70;99.90;;;;;;5076204;28;20097;-72
2021/08/22 01:48:00;;;;;;;15.85;10.43;;;18.70;99.90;;;;;;5075665;28;20043;-72
2021/08/22 01:50:29;;;;;;;16.40;10.32;;;18.70;99.90;;;;;;5076139;28;20351;-72
2021/08/22 01:52:59;;;;;;;14.88;11.07;;;18.60;99.90;;;;;;5074590;28;20681;-72
2021/08/22 01:55:26;;;;;;;17.98;12.23;;;18.60;99.90;;;;;;5075442;28;20458;-71
2021/08/22 01:57:53;;;;;;;18.42;11.52;;;18.50;99.90;;;;;;5075592;28;20048;-72
2021/08/22 02:00:20;;;;;;;24.02;16.65;;;18.40;99.90;;;;;;5076143;28;20101;-72
2021/08/22 02:02:56;;;;;;;23.83;15.15;;;18.40;99.90;;;;;;5079135;28;20101;-72
2021/08/22 02:05:25;;;;;;;19.70;13.73;;;18.30;99.90;;;;;;5076259;28;20415;-72
2021/08/22 02:07:54;;;;;;;27.02;17.60;;;18.30;99.90;;;;;;5076076;28;20044;-72
2021/08/22 02:10:26;;;;;;;25.40;14.85;;;18.30;99.90;;;;;;5073930;28;20087;-72
2021/08/22 02:12:58;;;;;;;23.95;15.20;;;18.20;99.90;;;;;;5076795;28;20048;-72
2021/08/22 02:15:28;;;;;;;18.85;13.13;;;18.30;99.90;;;;;;5075485;28;20465;-72
2021/08/22 02:18:00;;;;;;;21.92;14.38;;;18.40;99.90;;;;;;5072511;28;20592;-69
2021/08/22 02:20:28;;;;;;;18.00;11.40;;;18.30;99.90;;;;;;5076850;28;20230;-70
2021/08/22 02:22:57;;;;;;;17.10;11.65;;;18.30;99.90;;;;;;5073682;28;20047;-70
2021/08/22 02:25:25;;;;;;;18.50;12.80;;;18.40;99.90;;;;;;5077871;28;20047;-71
2021/08/22 02:27:52;;;;;;;14.63;10.93;;;18.40;99.90;;;;;;5075665;28;20457;-72
2021/08/22 02:30:19;;;;;;;19.30;12.00;;;18.40;99.90;;;;;;5076840;28;20084;-71
2021/08/22 02:32:46;;;;;;;20.13;12.25;;;18.40;99.90;;;;;;5075978;28;20089;-73
2021/08/22 02:35:13;;;;;;;19.77;13.35;;;18.40;99.90;;;;;;5074945;28;20418;-71
2021/08/22 02:37:40;;;;;;;17.17;12.68;;;18.50;99.90;;;;;;5076562;28;20543;-71
2021/08/22 02:40:10;;;;;;;18.02;13.07;;;18.40;99.90;;;;;;5075203;28;20046;-72
2021/08/22 02:42:37;;;;;;;17.83;11.82;;;18.30;99.90;;;;;;5076179;28;20079;-72
2021/08/22 02:45:05;;;;;;;20.15;12.80;;;18.30;99.90;;;;;;5076684;28;20491;-71
2021/08/22 02:47:32;;;;;;;17.48;11.80;;;18.40;99.90;;;;;;5074127;28;20140;-72
2021/08/22 02:50:02;;;;;;;17.63;12.10;;;18.40;99.90;;;;;;5077178;28;20052;-72
2021/08/22 02:52:29;;;;;;;16.52;11.07;;;18.30;99.90;;;;;;5074710;28;20528;-72
2021/08/22 02:54:56;;;;;;;15.90;10.05;;;18.30;99.90;;;;;;5074082;28;20051;-71
2021/08/22 02:57:24;;;;;;;16.75;10.75;;;18.40;99.90;;;;;;5076154;28;20052;-72
2021/08/22 02:59:51;;;;;;;14.68;10.05;;;18.50;99.90;;;;;;5076646;28;20559;-72
2021/08/22 03:02:21;;;;;;;15.95;10.05;;;18.50;99.90;;;;;;5075976;28;20128;-71
2021/08/22 03:04:51;;;;;;;14.20;9.77;;;18.60;99.90;;;;;;5078083;28;20130;-71
2021/08/22 03:07:18;;;;;;;15.35;9.30;;;18.70;99.90;;;;;;5075469;28;20405;-71
2021/08/22 03:09:46;;;;;;;14.88;9.65;;;18.60;99.90;;;;;;5075684;28;20056;-72
2021/08/22 03:12:13;;;;;;;12.68;8.82;;;18.50;99.90;;;;;;5079836;28;20097;-71
2021/08/22 03:14:41;;;;;;;13.82;9.55;;;18.60;99.90;;;;;;5077377;28;20048;-71
2021/08/22 03:17:09;;;;;;;13.73;8.85;;;18.50;99.90;;;;;;5078324;28;20107;-71
2021/08/22 03:19:36;;;;;;;14.32;8.50;;;18.50;99.90;;;;;;5078653;28;20048;-70
2021/08/22 03:22:04;;;;;;;16.30;8.77;;;18.50;99.90;;;;;;5079012;28;20048;-70
2021/08/22 03:24:31;;;;;;;13.93;8.77;;;18.30;99.90;;;;;;5079774;28;20554;-70
2021/08/22 03:26:58;;;;;;;15.32;8.73;;;18.20;99.90;;;;;;5080758;28;20101;-70
2021/08/22 03:29:26;;;;;;;16.33;9.43;;;18.10;99.90;;;;;;5076010;28;20071;-69
2021/08/22 03:31:54;;;;;;;15.82;9.38;;;17.90;99.90;;;;;;5080610;28;20096;-69
2021/08/22 03:34:24;;;;;;;13.48;9.15;;;17.80;99.90;;;;;;5079982;28;20117;-69
2021/08/22 03:36:51;;;;;;;17.55;10.13;;;17.70;99.90;;;;;;5078194;28;20052;-69
2021/08/22 03:39:18;;;;;;;16.20;9.65;;;17.60;99.90;;;;;;5076899;28;20055;-69
2021/08/22 03:41:45;;;;;;;15.93;9.23;;;17.50;99.90;;;;;;5079555;28;20571;-69
2021/08/22 03:44:13;;;;;;;15.65;9.52;;;17.50;99.90;;;;;;5079125;28;20397;-69
2021/08/22 03:46:40;;;;;;;14.23;9.02;;;17.60;99.90;;;;;;5078457;28;20044;-69
2021/08/22 03:49:09;;;;;;;13.30;7.75;;;17.40;99.90;;;;;;5075425;28;20047;-70
2021/08/22 03:51:36;;;;;;;13.55;8.23;;;17.40;99.90;;;;;;5075279;28;20044;-70
2021/08/22 03:54:04;;;;;;;12.90;9.35;;;17.40;99.90;;;;;;5078917;28;20401;-70
2021/08/22 03:56:31;;;;;;;14.18;9.38;;;17.30;99.90;;;;;;5079819;28;20495;-70
2021/08/22 03:58:58;;;;;;;14.18;8.85;;;17.40;99.90;;;;;;5079713;28;20040;-69
2021/08/22 04:01:25;;;;;;;12.85;8.63;;;17.30;99.90;;;;;;5077681;28;20052;-69
2021/08/22 04:03:52;;;;;;;15.35;9.38;;;17.20;99.90;;;;;;5077059;28;20131;-69
2021/08/22 04:06:24;;;;;;;14.02;9.50;;;17.20;99.90;;;;;;5079967;28;20067;-69
2021/08/22 04:08:54;;;;;;;16.88;9.35;;;17.30;99.90;;;;;;5080776;28;20044;-70
2021/08/22 04:11:24;;;;;;;13.50;8.82;;;17.20;99.90;;;;;;5080797;28;20048;-69
2021/08/22 04:13:51;;;;;;;14.75;9.48;;;17.20;99.90;;;;;;5081192;28;20075;-69
2021/08/22 04:16:18;;;;;;;17.90;10.30;;;17.30;99.90;;;;;;5079527;28;20270;-69
2021/08/22 04:18:46;;;;;;;17.30;11.00;;;17.30;99.90;;;;;;5081572;28;20045;-69
2021/08/22 04:21:13;;;;;;;19.02;12.18;;;17.30;99.90;;;;;;5078409;28;20719;-69
2021/08/22 04:23:41;;;;;;;16.92;12.93;;;17.30;99.90;;;;;;5076631;28;20480;-68
2021/08/22 04:26:09;;;;;;;18.67;13.55;;;17.30;99.90;;;;;;5082083;28;20182;-70
2021/08/22 04:28:37;;;;;;;23.10;15.40;;;17.20;99.90;;;;;;5079393;28;20056;-70
2021/08/22 04:31:04;;;;;;;22.52;14.70;;;17.30;99.90;;;;;;5074869;28;20054;-70
2021/08/22 04:33:31;;;;;;;21.50;15.20;;;17.30;99.90;;;;;;5074587;28;20051;-70
2021/08/22 04:35:58;;;;;;;22.70;13.93;;;17.30;99.90;;;;;;5074657;28;20076;-70
2021/08/22 04:38:25;;;;;;;20.67;14.63;;;17.30;99.90;;;;;;5071798;28;20067;-70
2021/08/22 04:40:54;;;;;;;19.63;13.15;;;17.50;99.90;;;;;;5071609;28;20120;-70
2021/08/22 04:43:21;;;;;;;25.20;14.20;;;17.40;99.90;;;;;;5074439;28;20500;-70
2021/08/22 04:45:48;;;;;;;19.02;12.27;;;17.30;99.90;;;;;;5074086;28;20089;-69
2021/08/22 04:48:15;;;;;;;19.65;13.00;;;17.20;99.90;;;;;;5070899;28;20055;-70
2021/08/22 04:50:42;;;;;;;18.15;12.25;;;17.20;99.90;;;;;;5072562;28;20130;-70
2021/08/22 04:53:09;;;;;;;18.95;11.80;;;17.20;99.90;;;;;;5072668;28;20360;-71
2021/08/22 04:55:36;;;;;;;19.33;11.55;;;17.20;99.90;;;;;;5075104;28;20079;-70
2021/08/22 04:58:04;;;;;;;16.13;10.60;;;17.20;99.90;;;;;;5071799;28;20481;-69
2021/08/22 05:00:31;;;;;;;16.60;10.70;;;17.20;99.90;;;;;;5066590;28;20048;-69
2021/08/22 05:02:58;;;;;;;17.60;11.43;;;17.20;99.90;;;;;;5067142;28;20465;-70
2021/08/22 05:05:26;;;;;;;17.02;11.95;;;17.20;99.90;;;;;;5066947;28;20090;-70
2021/08/22 05:07:56;;;;;;;19.27;12.80;;;17.30;99.90;;;;;;5066185;28;20055;-69
2021/08/22 05:10:24;;;;;;;15.20;9.52;;;17.30;99.90;;;;;;5070904;28;20051;-69
2021/08/22 05:12:51;;;;;;;18.35;11.68;;;17.30;99.90;;;;;;5075343;28;20045;-69
2021/08/22 05:15:19;;;;;;;17.92;12.70;;;17.30;99.90;;;;;;5074010;28;20572;-69
2021/08/22 05:17:46;;;;;;;18.40;12.68;;;17.40;99.90;;;;;;5075929;28;20447;-73
2021/08/22 05:20:13;;;;;;;16.80;11.68;;;17.50;99.90;;;;;;5081337;28;20047;-70
2021/08/22 05:22:40;;;;;;;14.57;9.40;;;17.40;99.90;;;;;;5081999;28;20048;-70
2021/08/22 05:25:08;;;;;;;15.65;11.02;;;17.40;99.90;;;;;;5078998;28;20094;-70
2021/08/22 05:27:35;;;;;;;19.33;12.82;;;17.40;99.90;;;;;;5081221;28;20162;-70
2021/08/22 05:30:02;;;;;;;23.05;14.43;;;17.50;99.90;;;;;;5082163;28;20079;-70
2021/08/22 05:32:31;;;;;;;18.15;12.65;;;17.60;99.90;;;;;;5080993;28;20475;-70
2021/08/22 05:34:58;;;;;;;15.98;11.50;;;17.60;99.90;;;;;;5079094;28;20134;-70
2021/08/22 05:37:25;;;;;;;17.48;11.40;;;17.60;99.90;;;;;;5076340;28;20499;-70
2021/08/22 05:39:52;;;;;;;17.05;11.35;;;17.60;99.90;;;;;;5078181;28;20072;-70
2021/08/22 05:42:19;;;;;;;15.57;10.07;;;17.60;99.90;;;;;;5080187;28;20405;-70
2021/08/22 05:44:46;;;;;;;13.88;8.32;;;17.70;99.90;;;;;;5077516;28;20555;-70
2021/08/22 05:47:13;;;;;;;11.82;8.05;;;17.80;99.90;;;;;;5078564;28;20769;-70
2021/08/22 05:49:41;;;;;;;12.82;7.72;;;17.80;99.90;;;;;;5079030;28;20474;-70
2021/08/22 05:52:09;;;;;;;10.00;6.65;;;17.80;99.90;;;;;;5079567;28;20074;-71
2021/08/22 05:54:37;;;;;;;11.68;7.13;;;17.80;99.90;;;;;;5078742;28;20139;-70
2021/08/22 05:57:05;;;;;;;15.45;7.22;;;17.80;99.90;;;;;;5079763;28;20048;-73
2021/08/22 05:59:33;;;;;;;10.65;6.95;;;17.80;99.90;;;;;;5076912;28;20074;-71
2021/08/22 06:02:00;;;;;;;12.23;6.53;;;17.80;99.90;;;;;;5080545;28;20059;-71
2021/08/22 06:04:27;;;;;;;11.02;6.60;;;17.80;99.90;;;;;;5079351;28;20108;-71
2021/08/22 06:06:55;;;;;;;11.50;6.45;;;17.80;99.90;;;;;;5079914;28;20086;-71
2021/08/22 06:09:23;;;;;;;10.68;6.88;;;17.70;99.90;;;;;;5081650;28;20507;-70
2021/08/22 06:11:51;;;;;;;15.63;7.35;;;17.70;99.90;;;;;;5080209;28;20044;-71
2021/08/22 06:14:18;;;;;;;12.32;6.85;;;17.70;99.90;;;;;;5079565;28;20056;-70
2021/08/22 06:16:45;;;;;;;11.60;7.53;;;17.60;99.90;;;;;;5080588;28;20065;-71
2021/08/22 06:19:12;;;;;;;12.77;6.95;;;17.60;99.90;;;;;;5079570;28;20144;-71
2021/08/22 06:21:39;;;;;;;11.63;7.32;;;17.60;99.90;;;;;;5079574;28;20097;-70
2021/08/22 06:24:08;;;;;;;12.18;8.45;;;17.70;99.90;;;;;;5079360;28;20071;-71
2021/08/22 06:26:35;;;;;;;12.10;7.45;;;17.80;99.90;;;;;;5078035;28;20689;-71
2021/08/22 06:29:02;;;;;;;15.88;7.45;;;17.80;99.90;;;;;;5078714;28;20146;-71
2021/08/22 06:31:29;;;;;;;12.60;7.38;;;17.80;99.90;;;;;;5081650;28;20052;-71
2021/08/22 06:33:56;;;;;;;11.52;7.22;;;17.90;99.90;;;;;;5072729;28;20145;-72
2021/08/22 06:36:23;;;;;;;12.25;7.78;;;17.90;99.90;;;;;;5073595;28;20079;-70
2021/08/22 06:38:50;;;;;;;12.80;7.60;;;18.00;99.90;;;;;;5070617;28;21311;-70
2021/08/22 06:41:18;;;;;;;14.93;7.93;;;18.00;99.90;;;;;;5073049;28;20117;-70
2021/08/22 06:43:45;;;;;;;12.13;7.43;;;18.10;99.90;;;;;;5079724;28;20513;-70
2021/08/22 06:46:13;;;;;;;15.45;7.60;;;18.30;99.90;;;;;;5080273;28;20154;-70
2021/08/22 06:48:40;;;;;;;12.30;6.72;;;18.30;99.90;;;;;;5076835;28;20075;-70
2021/08/22 06:51:07;;;;;;;12.63;7.22;;;18.30;99.90;;;;;;5077377;28;20109;-70
2021/08/22 06:53:34;;;;;;;11.77;7.40;;;18.40;99.90;;;;;;5070895;28;20052;-70
2021/08/22 06:56:01;;;;;;;13.82;7.45;;;18.50;99.90;;;;;;5072623;28;20536;-71
2021/08/22 06:58:29;;;;;;;12.32;7.22;;;18.60;99.90;;;;;;5071885;28;20073;-70
2021/08/22 07:00:56;;;;;;;10.60;6.80;;;18.80;99.90;;;;;;5073413;28;20087;-71
2021/08/22 07:03:23;;;;;;;11.85;6.97;;;19.00;99.90;;;;;;5073197;28;20137;-69
2021/08/22 07:05:51;;;;;;;12.57;5.93;;;19.10;99.90;;;;;;5072764;28;20511;-71
2021/08/22 07:08:18;;;;;;;12.70;6.00;;;19.20;99.90;;;;;;5072852;28;20112;-71
2021/08/22 07:10:45;;;;;;;12.95;7.10;;;19.30;99.90;;;;;;5075374;28;20476;-71
2021/08/22 07:13:12;;;;;;;9.75;6.18;;;19.20;99.90;;;;;;5068303;28;20044;-70
2021/08/22 07:15:40;;;;;;;9.98;5.63;;;19.30;99.90;;;;;;5065457;28;20555;-70
2021/08/22 07:18:08;;;;;;;10.85;5.68;;;19.30;99.90;;;;;;5068303;28;20121;-71
2021/08/22 07:20:35;;;;;;;11.02;6.20;;;19.30;99.90;;;;;;5067102;28;20048;-72
2021/08/22 07:23:02;;;;;;;10.52;5.43;;;19.40;99.90;;;;;;5065473;28;20047;-72
2021/08/22 07:25:29;;;;;;;10.30;5.38;;;19.40;99.90;;;;;;5065554;28;20044;-72
2021/08/22 07:27:56;;;;;;;10.63;6.07;;;19.40;99.90;;;;;;5068663;28;20134;-71
2021/08/22 07:30:25;;;;;;;8.57;5.60;;;19.40;99.90;;;;;;5068288;28;20415;-72
2021/08/22 07:32:55;;;;;;;11.38;6.20;;;19.50;99.90;;;;;;5071877;28;20398;-70
2021/08/22 07:35:23;;;;;;;11.05;6.10;;;19.50;99.90;;;;;;5073016;28;20052;-70
2021/08/22 07:37:50;;;;;;;12.38;7.15;;;19.60;99.90;;;;;;5071203;28;20359;-71
2021/08/22 07:40:17;;;;;;;10.75;5.85;;;19.70;99.90;;;;;;5073746;28;20043;-72
2021/08/22 07:42:43;;;;;;;10.25;5.40;;;19.80;99.90;;;;;;5069875;28;20048;-72
2021/08/22 07:45:11;;;;;;;8.75;4.97;;;19.80;99.90;;;;;;5072702;28;20465;-72
2021/08/22 07:47:39;;;;;;;9.35;5.30;;;19.90;99.90;;;;;;5072642;28;20109;-71
2021/08/22 07:50:09;;;;;;;9.43;5.50;;;19.90;99.90;;;;;;5073837;28;20052;-71
2021/08/22 07:52:36;;;;;;;10.88;5.82;;;19.80;99.90;;;;;;5073452;28;20040;-71
2021/08/22 07:55:03;;;;;;;10.85;5.60;;;19.80;99.90;;;;;;5073312;28;20456;-71
2021/08/22 07:57:31;;;;;;;11.75;6.05;;;19.80;99.90;;;;;;5072751;28;20048;-71
2021/08/22 07:59:58;;;;;;;11.32;6.32;;;19.80;99.90;;;;;;5072372;28;20094;-70
2021/08/22 08:02:25;;;;;;;17.33;6.40;;;19.80;99.90;;;;;;5072298;28;20134;-71
2021/08/22 08:04:52;;;;;;;10.38;5.57;;;19.80;99.90;;;;;;5071428;28;20091;-72
2021/08/22 08:07:21;;;;;;;10.55;5.30;;;19.80;99.90;;;;;;5069935;28;20447;-71
2021/08/22 08:09:47;;;;;;;8.75;5.72;;;19.80;99.90;;;;;;5069582;28;20152;-71
2021/08/22 08:12:14;;;;;;;8.80;5.13;;;19.90;99.90;;;;;;5068489;28;21003;-71
2021/08/22 08:14:41;;;;;;;9.77;5.85;;;19.90;99.90;;;;;;5066027;28;20495;-71
2021/08/22 08:17:08;;;;;;;9.77;5.97;;;20.10;99.90;;;;;;5067003;28;20114;-71
2021/08/22 08:19:35;;;;;;;10.18;5.53;;;19.90;99.90;;;;;;5065084;28;20136;-72
2021/08/22 08:22:02;;;;;;;8.98;5.50;;;19.90;99.90;;;;;;5071228;28;20040;-70
2021/08/22 08:24:31;;;;;;;8.98;5.05;;;19.90;99.90;;;;;;5066586;28;20055;-70
2021/08/22 08:26:58;;;;;;;12.57;6.28;;;20.00;99.90;;;;;;5064362;28;20554;-70
2021/08/22 08:29:25;;;;;;;10.90;5.78;;;20.00;99.90;;;;;;5073690;28;20101;-71
2021/08/22 08:31:52;;;;;;;8.93;5.43;;;19.90;99.90;;;;;;5074536;28;20046;-69
2021/08/22 08:34:19;;;;;;;9.85;5.57;;;20.00;99.90;;;;;;5074009;28;20051;-69
2021/08/22 08:36:46;;;;;;;10.50;5.15;;;19.90;99.90;;;;;;5077871;28;20458;-70
2021/08/22 08:39:13;;;;;;;10.35;5.28;;;20.00;99.90;;;;;;5075724;28;20105;-70
2021/08/22 08:41:42;;;;;;;8.27;5.30;;;20.00;99.90;;;;;;5074293;28;20100;-69
2021/08/22 08:44:12;;;;;;;9.60;5.15;;;20.00;99.90;;;;;;5074851;28;20408;-69
2021/08/22 08:46:43;;;;;;;9.10;5.35;;;20.10;99.90;;;;;;5074665;28;20496;-70
2021/08/22 08:49:11;;;;;;;7.75;4.57;;;20.20;99.90;;;;;;5073225;28;20393;-69
2021/08/22 08:51:57;;;;;;;8.35;4.68;;;20.20;99.90;;;;;;5073506;28;20043;-69
2021/08/22 08:54:26;;;;;;;11.75;4.78;;;20.30;99.90;;;;;;5075431;28;20117;-69
2021/08/22 08:56:55;;;;;;;8.88;5.38;;;20.40;99.90;;;;;;5076793;28;20131;-70
2021/08/22 08:59:22;;;;;;;9.10;5.30;;;20.40;99.90;;;;;;5077543;28;20105;-70
2021/08/22 09:01:52;;;;;;;10.48;4.35;;;20.50;99.90;;;;;;5076929;28;20120;-70
2021/08/22 09:04:25;;;;;;;9.95;5.00;;;20.50;99.90;;;;;;5077326;28;20048;-70
2021/08/22 09:07:30;;;;;;;8.00;4.65;;;20.60;99.90;;;;;;5077488;28;20139;-70
2021/08/22 09:10:36;;;;;;;9.23;4.65;;;20.90;99.90;;;;;;5078417;28;20043;-70
2021/08/22 09:13:37;;;;;;;9.93;4.93;;;21.10;99.90;;;;;;5075580;28;20082;-70
2021/08/22 09:17:01;;;;;;;10.43;4.90;;;21.30;99.90;;;;;;5077869;28;20052;-70
2021/08/22 09:20:02;;;;;;;8.07;4.90;;;21.40;99.90;;;;;;5077130;28;20128;-70
2021/08/22 09:23:35;;;;;;;8.45;4.90;;;21.50;99.90;;;;;;5041751;28;21047;-71
2021/08/22 09:26:39;;;;;;;10.32;5.00;;;21.60;99.90;;;;;;5077952;28;20514;-70
2021/08/22 09:29:44;;;;;;;9.02;4.72;;;21.80;99.90;;;;;;5076398;28;20055;-70
2021/08/22 09:32:48;;;;;;;7.55;4.65;;;22.10;99.90;;;;;;5075774;28;20047;-70
2021/08/22 09:35:52;;;;;;;10.77;4.85;;;22.50;99.90;;;;;;5078101;28;20087;-70
2021/08/22 09:39:08;;;;;;;9.13;5.10;;;23.10;99.90;;;;;;5074914;28;20109;-70
2021/08/22 09:42:11;;;;;;;9.13;4.47;;;23.60;99.90;;;;;;5078800;28;20504;-70
2021/08/22 09:45:18;;;;;;;8.95;4.40;;;23.60;99.90;;;;;;5074236;28;20048;-70
2021/08/22 09:48:39;;;;;;;10.00;5.13;;;23.40;99.90;;;;;;5073123;28;20092;-70
2021/08/22 09:51:55;;;;;;;8.20;5.05;;;23.30;99.90;;;;;;5076105;28;20058;-70
2021/08/22 09:54:56;;;;;;;9.48;5.00;;;22.90;99.90;;;;;;5074013;28;20047;-69
2021/08/22 09:57:56;;;;;;;8.85;4.75;;;22.70;99.90;;;;;;5077519;28;20055;-69
2021/08/22 10:00:53;;;;;;;8.88;4.80;;;22.60;99.90;;;;;;5072316;28;20069;-70
2021/08/22 10:03:47;;;;;;;7.13;4.67;;;22.10;99.90;;;;;;5075713;28;20093;-69
2021/08/22 10:06:45;;;;;;;9.52;4.78;;;21.70;99.90;;;;;;5062580;28;20716;-70
2021/08/22 10:09:15;;;;;;;9.70;5.40;;;21.60;99.90;;;;;;5073701;28;20052;-70
2021/08/22 10:11:45;;;;;;;10.48;4.97;;;21.60;99.90;;;;;;5073946;28;20055;-70
2021/08/22 10:14:13;;;;;;;10.63;5.05;;;21.70;99.90;;;;;;5075657;28;20047;-70
2021/08/22 10:16:40;;;;;;;11.18;5.75;;;21.60;99.90;;;;;;5074802;28;20054;-71
2021/08/22 10:19:07;;;;;;;9.25;5.20;;;21.80;99.90;;;;;;5074697;28;20451;-70
2021/08/22 10:21:40;;;;;;;9.18;5.07;;;22.10;99.90;;;;;;5063437;28;20134;-70
2021/08/22 10:24:12;;;;;;;8.43;5.15;;;22.60;99.90;;;;;;5065538;28;20420;-70
2021/08/22 10:27:05;;;;;;;8.55;4.68;;;23.00;99.90;;;;;;5073937;28;20059;-70
2021/08/22 10:29:33;;;;;;;9.10;4.82;;;23.20;99.90;;;;;;5075642;28;20113;-69
2021/08/22 10:32:14;;;;;;;8.75;5.47;;;23.40;99.90;;;;;;5075075;28;20120;-70
2021/08/22 10:34:42;;;;;;;8.82;4.68;;;23.30;99.90;;;;;;5073131;28;20105;-69
2021/08/22 10:37:31;;;;;;;7.10;4.50;;;23.50;99.90;;;;;;5077794;28;20578;-70
2021/08/22 10:40:14;;;;;;;8.65;4.50;;;23.70;99.90;;;;;;5077805;28;20044;-70
2021/08/22 10:42:43;;;;;;;7.75;4.53;;;23.70;99.90;;;;;;5071697;28;20055;-69
2021/08/22 10:45:10;;;;;;;7.45;4.63;;;24.10;99.90;;;;;;5088469;28;20085;-69
2021/08/22 10:47:43;;;;;;;7.38;4.25;;;24.00;99.90;;;;;;5094381;28;20393;-70
2021/08/22 10:50:11;;;;;;;8.48;4.15;;;24.10;99.90;;;;;;5084447;28;20508;-69
2021/08/22 10:52:40;;;;;;;9.77;4.40;;;24.30;99.90;;;;;;5093047;28;20132;-70
2021/08/22 10:55:38;;;;;;;8.80;4.55;;;24.20;99.90;;;;;;5092024;28;20539;-70
2021/08/22 10:58:07;;;;;;;12.02;4.68;;;23.90;99.90;;;;;;5026968;28;20052;-70
2021/08/22 11:00:36;;;;;;;8.98;4.20;;;23.90;99.90;;;;;;5077925;28;20093;-71
2021/08/22 11:03:05;;;;;;;6.88;4.13;;;23.70;99.90;;;;;;5088853;28;20048;-70
2021/08/22 11:05:33;;;;;;;8.13;3.85;;;23.30;99.90;;;;;;5090483;28;20071;-70
2021/08/22 11:08:14;;;;;;;9.27;5.10;;;22.90;99.90;;;;;;5087648;28;20047;-70
2021/08/22 11:10:55;;;;;;;8.80;5.15;;;22.60;99.90;;;;;;5091072;28;20067;-70
2021/08/22 11:13:24;;;;;;;9.55;4.80;;;22.20;99.90;;;;;;5086956;28;20133;-70
2021/08/22 11:15:51;;;;;;;9.30;5.65;;;21.80;99.90;;;;;;5086645;28;20512;-70
2021/08/22 11:18:19;;;;;;;10.35;5.18;;;21.80;99.90;;;;;;5089859;28;20044;-70
2021/08/22 11:20:46;;;;;;;8.48;5.13;;;21.60;99.90;;;;;;5088421;28;20048;-70
2021/08/22 11:23:17;;;;;;;8.43;4.68;;;21.70;99.90;;;;;;5090013;28;20097;-70
2021/08/22 11:25:46;;;;;;;9.20;5.03;;;21.70;99.90;;;;;;5093686;28;20080;-70
2021/08/22 11:28:14;;;;;;;8.88;4.78;;;21.50;99.90;;;;;;5084800;28;20079;-73
2021/08/22 11:30:44;;;;;;;8.52;4.90;;;21.60;99.90;;;;;;5084154;28;20663;-73
2021/08/22 11:33:12;;;;;;;9.35;4.90;;;21.50;99.90;;;;;;5087831;28;20044;-71
2021/08/22 11:35:44;;;;;;;7.88;5.43;;;21.50;99.90;;;;;;5087220;28;20052;-71
2021/08/22 11:38:15;;;;;;;9.75;5.07;;;21.50;99.90;;;;;;5086428;28;20040;-71
2021/08/22 11:40:43;;;;;;;9.68;5.20;;;21.40;99.90;;;;;;5086901;28;20051;-71
2021/08/22 11:43:11;;;;;;;8.60;5.28;;;21.50;99.90;;;;;;5093160;28;20043;-71
2021/08/22 11:45:41;;;;;;;9.57;5.78;;;21.60;99.90;;;;;;5083921;28;20048;-70
2021/08/22 11:48:16;;;;;;;9.50;5.10;;;21.70;99.90;;;;;;5079957;28;20048;-70
2021/08/22 11:50:44;;;;;;;8.85;5.53;;;22.10;99.90;;;;;;5087819;28;20523;-73
2021/08/22 11:53:12;;;;;;;8.02;5.00;;;22.30;99.90;;;;;;5089199;28;20044;-71
2021/08/22 11:55:40;;;;;;;7.82;4.70;;;22.20;99.90;;;;;;5087173;28;20121;-71
2021/08/22 11:58:10;;;;;;;9.20;5.32;;;22.10;99.90;;;;;;5091249;28;20044;-71
2021/08/22 12:00:39;;;;;;;7.40;5.07;;;22.00;99.90;;;;;;5082742;28;20408;-71
2021/08/22 12:03:11;;;;;;;9.20;4.45;;;21.90;99.90;;;;;;5087954;28;20055;-74
2021/08/22 12:05:51;;;;;;;8.77;4.88;;;21.90;99.90;;;;;;5084174;28;20044;-74
2021/08/22 12:08:18;;;;;;;7.78;4.50;;;22.00;99.90;;;;;;5085743;28;20048;-74
2021/08/22 12:10:45;;;;;;;6.57;3.92;;;22.00;99.90;;;;;;5090303;28;20071;-73
2021/08/22 12:13:18;;;;;;;7.22;4.25;;;22.10;99.90;;;;;;5087172;28;20088;-75
2021/08/22 12:15:45;;;;;;;7.20;4.40;;;22.10;99.90;;;;;;5089584;28;20135;-74
2021/08/22 12:18:18;;;;;;;8.10;4.05;;;22.00;99.90;;;;;;5087266;28;20048;-74
2021/08/22 12:20:47;;;;;;;8.35;4.78;;;21.90;99.90;;;;;;5084732;28;20050;-74
2021/08/22 12:23:15;;;;;;;6.90;3.15;;;21.60;99.90;;;;;;5080899;28;20559;-74
2021/08/22 12:25:43;;;;;;;5.13;2.65;;;21.10;99.90;;;;;;5086847;28;20075;-75
2021/08/22 12:28:25;;;;;;;9.30;2.45;;;20.60;99.90;;;;;;5089239;28;20515;-75
2021/08/22 12:31:07;;;;;;;6.47;2.70;;;20.40;99.90;;;;;;5090136;28;20048;-76
2021/08/22 12:33:35;;;;;;;5.72;2.42;;;20.20;99.90;;;;;;5088174;28;20514;-74
2021/08/22 12:36:10;;;;;;;6.53;2.80;;;20.20;99.90;;;;;;5087498;28;20113;-74
2021/08/22 12:38:40;;;;;;;7.28;3.10;;;20.30;99.90;;;;;;5088088;28;20086;-74
2021/08/22 12:41:37;;;;;;;9.02;2.83;;;20.40;99.90;;;;;;5089215;28;20141;-74
2021/08/22 12:44:06;;;;;;;6.90;2.22;;;20.50;99.90;;;;;;5086617;28;20047;-74
2021/08/22 12:46:34;;;;;;;6.00;2.95;;;20.50;99.90;;;;;;5085678;28;20135;-74
2021/08/22 12:49:01;;;;;;;7.22;2.70;;;20.50;99.90;;;;;;5084357;28;20101;-74
2021/08/22 12:51:30;;;;;;;6.05;2.60;;;20.50;99.90;;;;;;5087290;28;20094;-74
2021/08/22 12:53:58;;;;;;;7.72;3.22;;;20.60;99.90;;;;;;5087990;28;20040;-74
2021/08/22 12:56:26;;;;;;;5.85;2.92;;;20.60;99.90;;;;;;5089505;28;20079;-74
2021/08/22 12:58:54;;;;;;;7.95;3.13;;;20.60;99.90;;;;;;5086158;28;20044;-74